Time;durP1;ratioP1;P1;durP2;ratioP2;P2;SDS_P1;SDS_P2;PMS_P1;PMS_P2;Temp;Humidity;BMP_temperature;BMP_pressure;BME280_temperature;BME280_humidity;BME280_pressure;Samples;Min_cycle;Max_cycle;Signal;HPM_P1;HPM_P2
2024/01/14 00:00:43;;;;;;;;;74.00;54.00;;;;;-4.18;100.00;99183.25;6277289;20;2891940;-42
2024/01/14 00:03:13;;;;;;;;;78.00;57.67;;;;;-4.42;100.00;99173.88;6276595;20;2897178;-41
2024/01/14 00:05:42;;;;;;;;;67.00;52.00;;;;;-4.56;100.00;99176.59;6310136;20;2855510;-42
2024/01/14 00:08:11;;;;;;;;;78.50;54.00;;;;;-4.52;100.00;99182.69;6280389;20;2895077;-42
2024/01/14 00:10:41;;;;;;;;;72.00;48.33;;;;;-4.57;100.00;99185.34;6278063;20;2903565;-44
2024/01/14 00:13:09;;;;;;;;;71.50;52.00;;;;;-4.44;100.00;99180.88;6309277;20;2879580;-42
2024/01/14 00:15:38;;;;;;;;;69.00;50.00;;;;;-4.08;100.00;99174.41;6274900;20;2862805;-41
2024/01/14 00:18:08;;;;;;;;;77.33;54.33;;;;;-4.00;100.00;99171.69;6279491;20;2894170;-45
2024/01/14 00:20:36;;;;;;;;;73.00;51.00;;;;;-3.97;100.00;99167.28;6303912;20;2492039;-43
2024/01/14 00:23:06;;;;;;;;;83.67;57.33;;;;;-4.19;100.00;99181.47;6278297;20;2896312;-43
2024/01/14 00:25:36;;;;;;;;;83.67;56.33;;;;;-4.29;100.00;99165.00;6308135;20;2900343;-41
2024/01/14 00:28:05;;;;;;;;;66.33;46.33;;;;;-4.31;100.00;99156.28;6307833;20;2906612;-42
2024/01/14 00:30:35;;;;;;;;;60.33;47.00;;;;;-4.21;100.00;99151.81;6309968;20;2893016;-41
2024/01/14 00:33:05;;;;;;;;;79.67;60.33;;;;;-3.57;100.00;99158.06;6308843;20;2885830;-42
2024/01/14 00:35:34;;;;;;;;;62.50;49.00;;;;;-3.67;100.00;99151.19;6308955;20;2879609;-44
2024/01/14 00:38:03;;;;;;;;;63.50;49.00;;;;;-3.75;100.00;99144.28;6277189;20;2872205;-42
2024/01/14 00:40:32;;;;;;;;;77.00;57.00;;;;;-3.60;100.00;99144.97;6277800;20;2873257;-42
2024/01/14 00:43:01;;;;;;;;;78.50;59.50;;;;;-3.24;100.00;99121.72;6278746;20;2869187;-42
2024/01/14 00:45:30;;;;;;;;;72.50;54.00;;;;;-3.05;100.00;99127.53;6279109;20;2874381;-43
2024/01/14 00:47:58;;;;;;;;;75.50;57.50;;;;;-3.36;100.00;99134.13;6272805;20;2494653;-43
2024/01/14 00:50:26;;;;;;;;;54.33;32.67;;;;;-3.21;100.00;99134.78;6276721;20;3564844;-41
2024/01/14 00:52:56;;;;;;;;;73.33;49.67;;;;;-3.18;100.00;99140.03;6305443;20;3634618;-42
2024/01/14 00:55:25;;;;;;;;;88.33;58.00;;;;;-2.89;100.00;99137.78;6307996;20;2899343;-41
2024/01/14 00:57:54;;;;;;;;;81.50;57.00;;;;;-3.04;100.00;99126.66;6309064;20;2885718;-41
2024/01/14 01:00:24;;;;;;;;;76.00;57.00;;;;;-2.98;100.00;99134.44;6277368;20;2866990;-42
2024/01/14 01:02:54;;;;;;;;;90.33;63.33;;;;;-3.02;100.00;99141.50;6275840;20;2901362;-43
2024/01/14 01:05:24;;;;;;;;;84.00;60.33;;;;;-2.98;100.00;99132.69;6306224;20;2900408;-43
2024/01/14 01:07:53;;;;;;;;;75.00;56.00;;;;;-2.98;100.00;99126.56;6306598;20;2863037;-42
2024/01/14 01:10:21;;;;;;;;;67.50;45.50;;;;;-2.91;100.00;99126.44;6279402;20;2878423;-43
2024/01/14 01:12:50;;;;;;;;;80.67;57.33;;;;;-2.88;100.00;99123.75;6277286;20;2884712;-43
2024/01/14 01:15:19;;;;;;;;;74.00;58.00;;;;;-3.09;100.00;99108.34;6306795;20;2870134;-42
2024/01/14 01:17:48;;;;;;;;;74.00;57.50;;;;;-2.97;100.00;99096.81;6274291;20;2871105;-42
2024/01/14 01:20:18;;;;;;;;;63.33;45.67;;;;;-2.80;100.00;99104.38;6277340;20;3652475;-40
2024/01/14 01:22:48;;;;;;;;;81.00;57.00;;;;;-2.73;100.00;99093.75;6306285;20;2699271;-43
2024/01/14 01:25:17;;;;;;;;;71.00;53.00;;;;;-2.70;100.00;99098.09;6305960;20;2875810;-44
2024/01/14 01:27:47;;;;;;;;;80.33;57.00;;;;;-2.64;100.00;99100.59;6274527;20;2893005;-44
2024/01/14 01:30:16;;;;;;;;;83.33;59.67;;;;;-2.74;100.00;99085.88;6307720;20;2891957;-43
2024/01/14 01:32:46;;;;;;;;;38.67;30.33;;;;;-2.73;100.00;99080.63;6306927;20;3596092;-44
2024/01/14 01:35:15;;;;;;;;;67.00;54.00;;;;;-2.71;100.00;99083.22;6272607;20;2510689;-43
2024/01/14 01:37:43;;;;;;;;;73.00;52.00;;;;;-2.75;100.00;99071.03;6274435;20;2502451;-43
2024/01/14 01:40:12;;;;;;;;;71.00;53.50;;;;;-2.75;100.00;99058.75;6277873;20;2873244;-46
2024/01/14 01:42:41;;;;;;;;;68.50;52.00;;;;;-2.60;100.00;99068.13;6271553;20;2502384;-42
2024/01/14 01:45:10;;;;;;;;;59.00;43.00;;;;;-2.50;100.00;99056.56;6273406;20;2878416;-43
2024/01/14 01:47:40;;;;;;;;;64.00;45.00;;;;;-2.50;100.00;99058.28;6273014;20;3661781;-44
2024/01/14 01:50:09;;;;;;;;;64.50;49.00;;;;;-2.41;100.00;99062.53;6306068;20;2872144;-43
2024/01/14 01:52:40;;;;;;;;;63.50;51.50;;;;;-2.23;100.00;99060.41;6272777;20;2862764;-42
2024/01/14 01:55:10;;;;;;;;;69.00;46.00;;;;;-2.29;100.00;99063.16;6278415;20;2870063;-44
2024/01/14 01:57:39;;;;;;;;;68.50;51.50;;;;;-2.31;100.00;99050.94;6274830;20;2869041;-42
2024/01/14 02:00:08;;;;;;;;;34.00;31.00;;;;;-2.31;100.00;99048.31;6274491;20;2851324;-43
2024/01/14 02:02:42;;;;;;;;;74.00;51.00;;;;;-2.30;100.00;99042.13;6269811;20;2502402;-44
2024/01/14 02:05:11;;;;;;;;;69.50;48.00;;;;;-2.39;100.00;99040.56;6271188;20;2499265;-42
2024/01/14 02:07:40;;;;;;;;;62.50;49.00;;;;;-2.30;100.00;99039.50;6277423;20;2860734;-42
2024/01/14 02:10:08;;;;;;;;;44.50;35.00;;;;;-2.32;100.00;99051.81;6269803;20;2502378;-41
2024/01/14 02:12:36;;;;;;;;;63.50;48.00;;;;;-2.19;100.00;99053.28;6271169;20;2506948;-42
2024/01/14 02:15:06;;;;;;;;;60.67;43.00;;;;;-2.14;100.00;99054.06;6273745;20;2884714;-43
2024/01/14 02:17:35;;;;;;;;;57.00;45.00;;;;;-2.07;100.00;99046.94;6308475;20;2881519;-42
2024/01/14 02:20:07;;;;;;;;;64.67;48.33;;;;;-2.02;100.00;99045.94;6275007;20;2879635;-42
2024/01/14 02:22:41;;;;;;;;;66.50;45.50;;;;;-2.18;100.00;99041.03;6308542;20;2861744;-41
2024/01/14 02:25:10;;;;;;;;;56.00;38.00;;;;;-2.27;100.00;99036.81;6271518;20;2870678;-43
2024/01/14 02:27:38;;;;;;;;;63.50;48.00;;;;;-2.17;100.00;99041.00;6273365;20;2864888;-42
2024/01/14 02:30:09;;;;;;;;;63.50;36.50;;;;;-2.04;100.00;99042.47;6272617;20;2851297;-45
2024/01/14 02:32:39;;;;;;;;;65.50;48.00;;;;;-2.09;100.00;99043.47;6274636;20;2864856;-46
2024/01/14 02:35:08;;;;;;;;;63.00;48.00;;;;;-2.01;100.00;99036.28;6276337;20;2869130;-42
2024/01/14 02:37:43;;;;;;;;;69.50;54.00;;;;;-2.37;100.00;99030.91;6270384;20;2510678;-45
2024/01/14 02:40:12;;;;;;;;;66.50;49.00;;;;;-2.17;100.00;99030.47;6273207;20;2852579;-46
2024/01/14 02:42:41;;;;;;;;;67.00;48.00;;;;;-2.06;100.00;99022.34;6273172;20;2889281;-43
2024/01/14 02:45:10;;;;;;;;;67.00;49.00;;;;;-2.29;100.00;99020.19;6304157;20;2858614;-42
2024/01/14 02:47:39;;;;;;;;;65.00;48.50;;;;;-2.43;100.00;99013.47;6273008;20;2856532;-42
2024/01/14 02:50:08;;;;;;;;;74.00;50.00;;;;;-2.33;100.00;99019.41;6277452;20;2875403;-42
2024/01/14 02:52:36;;;;;;;;;61.50;48.50;;;;;-2.34;100.00;99017.69;6273886;20;2502464;-43
2024/01/14 02:55:05;;;;;;;;;67.00;52.00;;;;;-2.36;100.00;99018.63;6270460;20;2508640;-45
2024/01/14 02:57:33;;;;;;;;;70.00;51.00;;;;;-2.46;100.00;99018.78;6274883;20;2871178;-43
2024/01/14 03:00:04;;;;;;;;;70.67;48.00;;;;;-2.63;100.00;99020.00;6276443;20;2895050;-46
2024/01/14 03:02:32;;;;;;;;;57.00;43.00;;;;;-2.59;100.00;99011.19;6302164;20;2494025;-46
2024/01/14 03:05:01;;;;;;;;;69.33;49.00;;;;;-2.66;100.00;99007.78;6276113;20;2883610;-46
2024/01/14 03:07:31;;;;;;;;;70.00;48.00;;;;;-2.40;100.00;99001.16;6304071;20;2869082;-47
2024/01/14 03:10:02;;;;;;;;;72.67;48.33;;;;;-2.55;100.00;98999.72;6307497;20;2888941;-43
2024/01/14 03:12:31;;;;;;;;;70.00;49.00;;;;;-2.68;100.00;98999.94;6307512;20;2872160;-46
2024/01/14 03:15:00;;;;;;;;;80.00;57.50;;;;;-2.69;100.00;98999.97;6272745;20;2890901;-44
2024/01/14 03:17:29;;;;;;;;;60.50;48.00;;;;;-2.68;100.00;99001.72;6275180;20;2855735;-42
2024/01/14 03:19:58;;;;;;;;;85.33;59.33;;;;;-2.85;100.00;99001.16;6275997;20;3651316;-43
2024/01/14 03:22:25;;;;;;;;;67.00;49.00;;;;;-2.77;100.00;98986.13;6300262;20;2502378;-42
2024/01/14 03:24:55;;;;;;;;;92.67;65.33;;;;;-2.75;100.00;98986.97;6270563;20;2904471;-42
2024/01/14 03:27:24;;;;;;;;;78.50;54.50;;;;;-2.91;100.00;98989.88;6306770;20;2885805;-45
2024/01/14 03:29:55;;;;;;;;;54.00;36.00;;;;;-2.84;100.00;98979.25;6270907;20;2502343;-47
2024/01/14 03:32:24;;;;;;;;;51.00;36.00;;;;;-3.21;100.00;98985.16;6273847;20;2891018;-41
2024/01/14 03:34:54;;;;;;;;;59.33;40.67;;;;;-3.12;100.00;98977.13;6274462;20;2890049;-43
2024/01/14 03:37:22;;;;;;;;;53.00;41.00;;;;;-3.07;100.00;98985.78;6305009;20;2873321;-48
2024/01/14 03:39:52;;;;;;;;;63.50;46.00;;;;;-3.15;100.00;98990.31;6275542;20;2869028;-42
2024/01/14 03:42:21;;;;;;;;;57.67;45.33;;;;;-2.91;100.00;99000.38;6274867;20;3615889;-42
2024/01/14 03:44:50;;;;;;;;;59.00;46.00;;;;;-3.08;100.00;99005.09;6271916;20;2849380;-44
2024/01/14 03:47:20;;;;;;;;;57.67;45.00;;;;;-3.11;100.00;98997.22;6276387;20;2883654;-43
2024/01/14 03:49:49;;;;;;;;;60.00;48.00;;;;;-2.93;100.00;98996.91;6299370;20;2858689;-41
2024/01/14 03:52:18;;;;;;;;;70.00;46.67;;;;;-3.25;100.00;98999.25;6271439;20;2896361;-44
2024/01/14 03:54:47;;;;;;;;;51.50;40.50;;;;;-3.00;100.00;98997.03;6304332;20;2885703;-41
2024/01/14 03:57:16;;;;;;;;;73.00;54.00;;;;;-3.09;100.00;98990.19;6272161;20;2882660;-45
2024/01/14 03:59:44;;;;;;;;;66.50;51.00;;;;;-2.89;100.00;98992.47;6272002;20;2850436;-41
2024/01/14 04:02:13;;;;;;;;;59.00;48.00;;;;;-3.18;100.00;98982.50;6274225;20;2851498;-42
2024/01/14 04:04:40;;;;;;;;;65.00;46.00;;;;;-2.84;100.00;98979.25;6265975;20;2504488;-42
2024/01/14 04:07:10;;;;;;;;;58.33;45.00;;;;;-3.24;100.00;98972.94;6274239;20;2870118;-42
2024/01/14 04:09:40;;;;;;;;;61.00;44.67;;;;;-2.93;100.00;98972.41;6304106;20;2881586;-41
2024/01/14 04:12:10;;;;;;;;;60.67;45.00;;;;;-2.73;100.00;98978.16;6302875;20;2893183;-42
2024/01/14 04:14:39;;;;;;;;;68.00;49.00;;;;;-2.91;100.00;98975.88;6301311;20;2852463;-43
2024/01/14 04:17:07;;;;;;;;;56.00;42.50;;;;;-3.25;100.00;98984.34;6271201;20;2502359;-42
2024/01/14 04:19:37;;;;;;;;;66.00;48.50;;;;;-3.28;100.00;98980.94;6273376;20;2875253;-42
2024/01/14 04:22:05;;;;;;;;;61.00;46.00;;;;;-3.33;100.00;98976.59;6273109;20;2859636;-42
2024/01/14 04:24:34;;;;;;;;;61.00;48.50;;;;;-3.34;100.00;98979.28;6270922;20;2849281;-42
2024/01/14 04:27:03;;;;;;;;;85.00;58.67;;;;;-2.91;100.00;98979.38;6271852;20;2893127;-42
2024/01/14 04:29:32;;;;;;;;;73.67;53.33;;;;;-3.73;100.00;98960.66;6305070;20;3641937;-45
2024/01/14 04:32:01;;;;;;;;;79.50;60.50;;;;;-3.16;100.00;98970.19;6309859;20;2881608;-41
2024/01/14 04:34:31;;;;;;;;;81.67;59.33;;;;;-3.00;100.00;98958.53;6276120;20;2889919;-43
2024/01/14 04:37:01;;;;;;;;;86.67;64.33;;;;;-3.69;100.00;98956.22;6309654;20;3639344;-42
2024/01/14 04:39:30;;;;;;;;;98.67;62.33;;;;;-3.77;100.00;98964.22;6304093;20;3674221;-45
2024/01/14 04:42:00;;;;;;;;;130.00;95.00;;;;;-3.72;100.00;98962.38;6308888;20;3696482;-41
2024/01/14 04:44:30;;;;;;;;;103.33;72.33;;;;;-3.99;100.00;98953.19;6275303;20;3671147;-41
2024/01/14 04:46:59;;;;;;;;;121.00;85.67;;;;;-3.93;100.00;98953.09;6308483;20;3705537;-42
2024/01/14 04:49:29;;;;;;;;;98.00;70.00;;;;;-3.56;100.00;98953.38;6277918;20;3665993;-42
2024/01/14 04:51:57;;;;;;;;;73.50;54.00;;;;;-3.32;100.00;98945.97;6307230;20;2498201;-41
2024/01/14 04:54:26;;;;;;;;;54.67;33.67;;;;;-3.35;100.00;98962.63;6271728;20;3647224;-40
2024/01/14 04:56:55;;;;;;;;;45.67;35.67;;;;;-3.44;100.00;98952.31;6309438;20;3611908;-47
2024/01/14 04:59:24;;;;;;;;;56.00;41.50;;;;;-3.62;100.00;98958.72;6277241;20;2883650;-42
2024/01/14 05:01:53;;;;;;;;;50.00;37.00;;;;;-3.38;100.00;98959.22;6279549;20;2872207;-42
2024/01/14 05:04:21;;;;;;;;;59.50;42.00;;;;;-3.21;100.00;98953.66;6276686;20;2879437;-42
2024/01/14 05:06:50;;;;;;;;;54.50;42.00;;;;;-3.28;100.00;98954.69;6276002;20;2880519;-44
2024/01/14 05:09:21;;;;;;;;;52.00;35.33;;;;;-3.16;100.00;98957.06;6275490;20;2875369;-44
2024/01/14 05:11:50;;;;;;;;;53.00;40.00;;;;;-3.18;100.00;98964.13;6308718;20;2863826;-57
2024/01/14 05:14:18;;;;;;;;;44.00;38.00;;;;;-3.46;100.00;98954.09;6271052;20;2498209;-40
2024/01/14 05:16:46;;;;;;;;;34.00;32.00;;;;;-3.23;100.00;98955.47;6271989;20;2866976;-41
2024/01/14 05:19:15;;;;;;;;;55.00;36.00;;;;;-3.10;100.00;98956.97;6276890;20;2881536;-44
2024/01/14 05:21:44;;;;;;;;;57.50;46.00;;;;;-3.15;100.00;98956.19;6274949;20;2879506;-42
2024/01/14 05:24:12;;;;;;;;;58.00;45.00;;;;;-3.05;100.00;98968.25;6273214;20;2502422;-41
2024/01/14 05:26:41;;;;;;;;;61.00;45.00;;;;;-2.96;100.00;98964.59;6306583;20;2588900;-42
2024/01/14 05:29:09;;;;;;;;;48.50;45.00;;;;;-3.26;100.00;98966.03;6306818;20;2865930;-42
2024/01/14 05:31:37;;;;;;;;;68.00;48.50;;;;;-3.20;100.00;98951.00;6277734;20;2870071;-40
2024/01/14 05:34:06;;;;;;;;;75.50;50.00;;;;;-3.42;100.00;98942.66;6276139;20;2880467;-42
2024/01/14 05:36:36;;;;;;;;;81.00;57.67;;;;;-3.22;100.00;98950.16;6274036;20;2879976;-42
2024/01/14 05:39:05;;;;;;;;;75.00;56.00;;;;;-3.44;100.00;98952.31;6307347;20;2879480;-41
2024/01/14 05:41:33;;;;;;;;;45.00;34.00;;;;;-3.52;100.00;98954.22;6273798;20;2502394;-40
2024/01/14 05:44:02;;;;;;;;;67.50;49.50;;;;;-3.54;100.00;98945.47;6274155;20;2882573;-41
2024/01/14 05:46:31;;;;;;;;;45.00;33.00;;;;;-3.37;100.00;98940.81;6273605;20;2881552;-41
2024/01/14 05:48:59;;;;;;;;;55.50;48.50;;;;;-3.53;100.00;98936.72;6276984;20;2685719;-42
2024/01/14 05:51:27;;;;;;;;;47.50;37.50;;;;;-3.50;100.00;98931.44;6276099;20;2877375;-44
2024/01/14 05:53:56;;;;;;;;;69.00;49.00;;;;;-3.25;100.00;98937.09;6271979;20;2856546;-42
2024/01/14 05:56:28;;;;;;;;;59.67;42.33;;;;;-3.39;100.00;98932.09;6273724;20;3638879;-41
2024/01/14 05:58:56;;;;;;;;;63.50;48.50;;;;;-3.31;100.00;98940.72;6306319;20;2858694;-43
2024/01/14 06:01:24;;;;;;;;;66.50;49.00;;;;;-3.44;100.00;98941.81;6276283;20;2870155;-43
2024/01/14 06:03:53;;;;;;;;;64.50;49.00;;;;;-3.32;100.00;98952.13;6276091;20;2861810;-44
2024/01/14 06:06:21;;;;;;;;;56.00;45.50;;;;;-3.35;100.00;98959.16;6272934;20;2875279;-41
2024/01/14 06:08:50;;;;;;;;;58.00;38.67;;;;;-3.85;100.00;98951.22;6278438;20;2899372;-41
2024/01/14 06:11:19;;;;;;;;;62.00;47.00;;;;;-3.96;100.00;98953.13;6304616;20;2502388;-41
2024/01/14 06:13:47;;;;;;;;;67.00;48.00;;;;;-3.86;100.00;98943.38;6271880;20;2881563;-43
2024/01/14 06:16:16;;;;;;;;;51.50;42.50;;;;;-3.40;100.00;98946.09;6275953;20;2880512;-41
2024/01/14 06:18:45;;;;;;;;;55.50;46.00;;;;;-3.40;100.00;98946.09;6277536;20;2858625;-41
2024/01/14 06:21:14;;;;;;;;;52.00;35.67;;;;;-3.48;100.00;98948.00;6275295;20;3642024;-41
2024/01/14 06:23:43;;;;;;;;;60.50;48.50;;;;;-3.28;100.00;98946.81;6306032;20;2850410;-40
2024/01/14 06:26:18;;;;;;;;;70.00;53.00;;;;;-3.49;100.00;98946.28;6274656;20;2876426;-41
2024/01/14 06:28:47;;;;;;;;;74.50;52.00;;;;;-3.53;100.00;98936.72;6271741;20;2881649;-41
2024/01/14 06:31:18;;;;;;;;;65.67;45.00;;;;;-3.46;100.00;98948.84;6274867;20;3638895;-41
2024/01/14 06:33:46;;;;;;;;;54.50;42.50;;;;;-3.14;100.00;98950.03;6301166;20;2502339;-42
2024/01/14 06:36:19;;;;;;;;;67.00;45.50;;;;;-3.01;100.00;98946.28;6275030;20;2887831;-41
2024/01/14 06:38:47;;;;;;;;;71.50;48.50;;;;;-3.01;100.00;98951.53;6271785;20;2496109;-40
2024/01/14 06:41:21;;;;;;;;;47.67;34.33;;;;;-3.15;100.00;98945.69;6273390;20;3578395;-41
2024/01/14 06:43:50;;;;;;;;;79.00;57.00;;;;;-3.20;100.00;98940.50;6302194;20;2881587;-41
2024/01/14 06:46:17;;;;;;;;;76.50;57.00;;;;;-3.26;100.00;98926.66;6270726;20;2502383;-42
2024/01/14 06:48:46;;;;;;;;;70.00;52.00;;;;;-3.14;100.00;98944.78;6275646;20;2874327;-42
2024/01/14 06:51:16;;;;;;;;;45.67;37.33;;;;;-3.06;100.00;98947.28;6274658;20;3605515;-42
2024/01/14 06:53:44;;;;;;;;;68.50;52.00;;;;;-2.97;100.00;98950.59;6270244;20;2485722;-41
2024/01/14 06:56:16;;;;;;;;;74.50;50.00;;;;;-2.98;100.00;98955.88;6274163;20;2873216;-41
2024/01/14 06:58:49;;;;;;;;;67.00;49.00;;;;;-3.02;100.00;98956.84;6275476;20;2864970;-43
2024/01/14 07:01:19;;;;;;;;;76.67;55.33;;;;;-3.12;100.00;98954.38;6271530;20;2886988;-40
2024/01/14 07:03:48;;;;;;;;;73.00;51.50;;;;;-2.90;100.00;98948.72;6303428;20;2870072;-42
2024/01/14 07:06:16;;;;;;;;;71.00;51.00;;;;;-2.82;100.00;98954.69;6268506;20;2510711;-40
2024/01/14 07:08:45;;;;;;;;;68.00;49.00;;;;;-2.90;100.00;98965.34;6271013;20;2867003;-42
2024/01/14 07:11:13;;;;;;;;;55.50;48.00;;;;;-2.72;100.00;98956.22;6274704;20;2835843;-42
2024/01/14 07:13:44;;;;;;;;;71.00;54.33;;;;;-2.81;100.00;98951.19;6271076;20;2875305;-41
2024/01/14 07:16:13;;;;;;;;;90.33;63.67;;;;;-2.37;100.00;98951.16;6305136;20;3656491;-42
2024/01/14 07:18:41;;;;;;;;;73.00;54.50;;;;;-2.60;100.00;98951.66;6301635;20;2490047;-43
2024/01/14 07:21:10;;;;;;;;;79.50;60.00;;;;;-2.84;100.00;98956.50;6273918;20;2874258;-43
2024/01/14 07:23:39;;;;;;;;;67.00;53.00;;;;;-2.69;100.00;98956.16;6269261;20;2510785;-41
2024/01/14 07:26:19;;;;;;;;;78.00;52.33;;;;;-2.72;100.00;98948.34;6272182;20;2895312;-43
2024/01/14 07:28:52;;;;;;;;;84.00;59.00;;;;;-2.27;100.00;98952.69;6301689;20;2887872;-42
2024/01/14 07:31:30;;;;;;;;;81.67;60.67;;;;;-2.29;100.00;98954.47;6274870;20;2881791;-50
2024/01/14 07:33:58;;;;;;;;;70.00;51.00;;;;;-2.08;100.00;98958.41;6301809;20;2495080;-48
2024/01/14 07:36:29;;;;;;;;;92.33;69.67;;;;;-2.36;100.00;98964.28;6272113;20;2895137;-47
2024/01/14 07:38:59;;;;;;;;;89.33;63.67;;;;;-1.79;100.00;98957.72;6305220;20;2903502;-49
2024/01/14 07:41:29;;;;;;;;;111.00;78.33;;;;;-2.09;100.00;98954.06;6301660;20;3679554;-47
2024/01/14 07:43:58;;;;;;;;;71.67;53.67;;;;;-2.03;100.00;98959.16;6268322;20;2888039;-47
2024/01/14 07:46:27;;;;;;;;;82.00;61.67;;;;;-2.33;100.00;98942.31;6304513;20;2882589;-46
2024/01/14 07:48:57;;;;;;;;;107.00;77.67;;;;;-2.26;100.00;98949.19;6304311;20;3662872;-48
2024/01/14 07:51:27;;;;;;;;;120.67;88.00;;;;;-2.15;100.00;98954.19;6302224;20;3690275;-48
2024/01/14 07:53:57;;;;;;;;;107.67;78.00;;;;;-2.06;100.00;98954.84;6269348;20;3683114;-47
2024/01/14 07:56:27;;;;;;;;;92.00;67.67;;;;;-2.21;100.00;98957.84;6303116;20;3648783;-49
2024/01/14 07:58:56;;;;;;;;;98.67;67.67;;;;;-2.22;100.00;98953.44;6305469;20;3667964;-47
2024/01/14 08:01:24;;;;;;;;;85.50;60.00;;;;;-2.44;100.00;98963.56;6300388;20;2497269;-48
2024/01/14 08:03:53;;;;;;;;;79.00;61.00;;;;;-2.36;100.00;98955.53;6277235;20;2877482;-47
2024/01/14 08:06:24;;;;;;;;;80.67;57.00;;;;;-2.12;100.00;98959.38;6277645;20;3657675;-49
2024/01/14 08:08:54;;;;;;;;;100.67;71.33;;;;;-2.11;100.00;98964.59;6309335;20;3654412;-48
2024/01/14 08:11:23;;;;;;;;;111.33;76.00;;;;;-1.49;100.00;98957.94;6307087;20;3683626;-50
2024/01/14 08:13:53;;;;;;;;;89.33;63.33;;;;;-1.77;100.00;98950.69;6274217;20;2907615;-48
2024/01/14 08:16:23;;;;;;;;;105.33;74.67;;;;;-1.69;100.00;98954.00;6309747;20;3674319;-46
2024/01/14 08:18:52;;;;;;;;;88.00;65.33;;;;;-1.48;100.00;98942.06;6309699;20;2894134;-49
2024/01/14 08:21:22;;;;;;;;;102.33;78.00;;;;;-1.55;100.00;98936.13;6309247;20;3680542;-47
2024/01/14 08:23:52;;;;;;;;;111.33;78.00;;;;;-1.29;100.00;98937.22;6308402;20;3680543;-45
2024/01/14 08:26:22;;;;;;;;;85.00;64.33;;;;;-1.09;100.00;98927.94;6274308;20;3630628;-45
2024/01/14 08:28:50;;;;;;;;;84.00;60.00;;;;;-0.99;100.00;98940.81;6305442;20;2500333;-45
2024/01/14 08:31:19;;;;;;;;;85.00;63.33;;;;;-1.47;100.00;98942.97;6279021;20;2896271;-46
2024/01/14 08:33:48;;;;;;;;;69.50;55.50;;;;;-0.62;100.00;98944.22;6309657;20;2861743;-47
2024/01/14 08:36:17;;;;;;;;;69.67;52.33;;;;;-0.90;100.00;98942.31;6267102;20;3608657;-53
2024/01/14 08:38:48;;;;;;;;;81.33;59.33;;;;;-0.22;100.00;98954.47;6274825;20;3655513;-48
2024/01/14 08:41:17;;;;;;;;;70.00;54.50;;;;;-0.29;100.00;98969.63;6307716;20;2853515;-44
2024/01/14 08:43:47;;;;;;;;;85.67;59.67;;;;;-0.31;100.00;98958.25;6273853;20;3669135;-45
2024/01/14 08:46:16;;;;;;;;;75.50;56.00;;;;;0.13;99.67;98965.72;6306565;20;2902388;-47
2024/01/14 08:48:45;;;;;;;;;67.00;49.50;;;;;0.31;100.00;98970.41;6278693;20;2872189;-46
2024/01/14 08:51:15;;;;;;;;;88.67;59.00;;;;;0.31;97.39;98959.00;6277855;20;3662819;-45
2024/01/14 08:53:45;;;;;;;;;76.33;55.00;;;;;0.17;96.37;98962.94;6305784;20;2882608;-47
2024/01/14 08:56:14;;;;;;;;;77.67;56.33;;;;;0.41;95.74;98963.94;6308091;20;2894141;-46
2024/01/14 08:58:44;;;;;;;;;81.33;57.67;;;;;0.44;96.55;98963.84;6311549;20;3649250;-44
2024/01/14 09:01:13;;;;;;;;;65.00;51.50;;;;;0.42;95.15;98967.44;6307063;20;2869142;-45
2024/01/14 09:03:42;;;;;;;;;77.00;54.00;;;;;0.57;94.77;98966.09;6278645;20;2892007;-45
2024/01/14 09:06:12;;;;;;;;;80.00;59.00;;;;;-0.06;96.25;98970.69;6310796;20;2894149;-44
2024/01/14 09:08:42;;;;;;;;;70.33;56.33;;;;;0.69;95.76;98964.84;6306751;20;2866042;-45
2024/01/14 09:11:11;;;;;;;;;75.50;54.00;;;;;0.33;95.17;98954.53;6309679;20;2881531;-44
2024/01/14 09:13:40;;;;;;;;;74.67;56.67;;;;;0.60;94.30;98951.00;6274397;20;2885833;-46
2024/01/14 09:16:10;;;;;;;;;82.00;56.00;;;;;0.66;95.16;98952.59;6309795;20;2901482;-45
2024/01/14 09:18:40;;;;;;;;;69.33;51.33;;;;;0.57;94.51;98959.03;6310328;20;2882676;-48
2024/01/14 09:21:09;;;;;;;;;78.50;61.00;;;;;0.52;95.42;98950.38;6307610;20;2884695;-45
2024/01/14 09:23:38;;;;;;;;;76.67;53.33;;;;;0.68;96.42;98952.53;6275456;20;2889903;-48
2024/01/14 09:26:08;;;;;;;;;87.00;60.00;;;;;0.78;94.37;98952.16;6309534;20;3664980;-52
2024/01/14 09:28:38;;;;;;;;;64.33;45.67;;;;;0.86;96.11;98955.41;6309549;20;3635712;-47
2024/01/14 09:31:07;;;;;;;;;64.00;53.50;;;;;0.95;95.21;98945.44;6308168;20;2855293;-46
2024/01/14 09:33:37;;;;;;;;;78.67;56.67;;;;;1.16;92.92;98943.81;6276691;20;3652357;-48
2024/01/14 09:36:09;;;;;;;;;75.67;57.67;;;;;1.05;94.10;98941.56;6311275;20;2882731;-47
2024/01/14 09:38:40;;;;;;;;;75.33;56.33;;;;;1.23;93.63;98940.06;6306261;20;3639871;-46
2024/01/14 09:41:47;;;;;;;;;67.67;55.33;;;;;1.25;93.65;98939.06;6308864;20;2885728;-47
2024/01/14 09:44:17;;;;;;;;;79.33;61.00;;;;;1.42;93.87;98930.56;6304215;20;3632672;-47
2024/01/14 09:46:48;;;;;;;;;71.50;52.00;;;;;1.29;92.75;98931.88;6301689;20;2874276;-47
2024/01/14 09:49:23;;;;;;;;;78.33;55.00;;;;;1.44;92.49;98930.47;6269888;20;3649430;-50
2024/01/14 09:51:55;;;;;;;;;82.00;57.67;;;;;2.08;90.71;98919.22;6303156;20;3638818;-49
2024/01/14 09:54:25;;;;;;;;;77.67;58.33;;;;;1.78;89.49;98924.78;6303315;20;3643020;-51
2024/01/14 09:56:55;;;;;;;;;64.50;46.50;;;;;2.31;86.91;98919.16;6302565;20;2881562;-50
2024/01/14 09:59:27;;;;;;;;;93.00;66.33;;;;;2.19;84.95;98922.31;6275112;20;3654479;-47
2024/01/14 10:01:56;;;;;;;;;65.00;49.50;;;;;2.31;85.26;98921.81;6306602;20;2877416;-47
2024/01/14 10:04:24;;;;;;;;;58.00;46.50;;;;;2.24;83.66;98920.34;6271283;20;2499301;-49
2024/01/14 10:06:54;;;;;;;;;56.50;43.50;;;;;2.13;84.17;98914.59;6278101;20;2850465;-48
2024/01/14 10:09:24;;;;;;;;;65.00;51.00;;;;;1.98;84.96;98909.00;6273411;20;2859692;-45
2024/01/14 10:11:54;;;;;;;;;87.00;63.67;;;;;2.13;85.93;98904.91;6277137;20;3644005;-46
2024/01/14 10:14:28;;;;;;;;;97.33;75.33;;;;;2.60;85.29;98912.66;6304142;20;3675286;-45
2024/01/14 10:16:58;;;;;;;;;77.67;58.00;;;;;2.29;83.35;98912.22;6276899;20;3652378;-47
2024/01/14 10:19:27;;;;;;;;;50.00;42.33;;;;;2.76;82.97;98902.28;6306509;20;3628408;-46
2024/01/14 10:21:57;;;;;;;;;72.67;51.67;;;;;2.73;83.25;98901.56;6306528;20;3639913;-47
2024/01/14 10:24:51;;;;;;;;;55.00;44.00;;;;;2.84;84.01;98902.84;6305527;20;2489855;-47
2024/01/14 10:27:22;;;;;;;;;59.00;48.50;;;;;2.77;84.44;98904.03;6277197;20;2847163;-47
2024/01/14 10:30:12;;;;;;;;;70.33;54.00;;;;;3.14;85.67;98891.84;6275105;20;2880491;-47
2024/01/14 10:32:43;;;;;;;;;64.00;50.50;;;;;2.79;81.75;98888.94;6307897;20;2871102;-47
2024/01/14 10:35:33;;;;;;;;;71.00;53.33;;;;;2.56;84.36;98884.59;6275462;20;2892034;-47
2024/01/14 10:38:04;;;;;;;;;68.33;50.00;;;;;2.82;80.87;98883.50;6308665;20;2880593;-49
2024/01/14 10:40:32;;;;;;;;;54.00;45.00;;;;;2.90;80.62;98874.31;6309580;20;2860751;-47
2024/01/14 10:43:02;;;;;;;;;71.00;52.00;;;;;3.32;78.26;98876.00;6274506;20;2885812;-46
2024/01/14 10:45:31;;;;;;;;;67.00;54.00;;;;;3.28;78.22;98880.59;6275757;20;2873221;-46
2024/01/14 10:48:09;;;;;;;;;58.00;40.33;;;;;2.81;79.00;98873.78;6275319;20;3626387;-47
2024/01/14 10:50:44;;;;;;;;;66.00;51.50;;;;;2.95;78.90;98875.88;6303815;20;2877425;-48
2024/01/14 10:53:24;;;;;;;;;79.67;57.00;;;;;3.64;78.48;98874.56;6273599;20;3641944;-47
2024/01/14 10:56:03;;;;;;;;;62.50;46.00;;;;;3.18;77.80;98872.19;6303515;20;2860745;-46
2024/01/14 10:58:36;;;;;;;;;60.50;46.00;;;;;3.07;78.81;98877.97;6274692;20;2872294;-46
2024/01/14 11:01:11;;;;;;;;;55.00;41.50;;;;;3.12;78.85;98874.25;6274822;20;2856562;-45
2024/01/14 11:03:41;;;;;;;;;75.33;55.00;;;;;3.27;77.56;98870.94;6272255;20;3652764;-46
2024/01/14 11:06:21;;;;;;;;;67.00;48.67;;;;;3.48;77.45;98869.09;6305420;20;2871116;-45
2024/01/14 11:08:53;;;;;;;;;59.00;47.00;;;;;3.66;77.51;98860.28;6304513;20;2859721;-47